Time;durP1;ratioP1;P1;durP2;ratioP2;P2;SDS_P1;SDS_P2;PMS_P1;PMS_P2;Temp;Humidity;BMP_temperature;BMP_pressure;BME280_temperature;BME280_humidity;BME280_pressure;Samples;Min_cycle;Max_cycle;Signal;HPM_P1;HPM_P2
2023/07/08 00:01:17;;;;;;;5.40;3.50;;;;;;;;;;108033;273;42522;-45
2023/07/08 00:03:52;;;;;;;5.70;3.70;;;;;;;;;;108058;276;42161;-41
2023/07/08 00:06:30;;;;;;;5.00;3.40;;;;;;;;;;108024;269;44940;-40
2023/07/08 00:09:11;;;;;;;5.50;3.60;;;;;;;;;;108028;276;41703;-41
2023/07/08 00:11:46;;;;;;;5.40;3.80;;;;;;;;;;108075;269;44072;-41
2023/07/08 00:14:21;;;;;;;5.20;3.70;;;;;;;;;;107901;273;175349;-41
2023/07/08 00:16:59;;;;;;;6.30;4.00;;;;;;;;;;108013;276;39880;-42
2023/07/08 00:19:33;;;;;;;5.90;3.70;;;;;;;;;;108078;273;39400;-41
2023/07/08 00:22:14;;;;;;;5.60;3.80;;;;;;;;;;108066;269;42915;-43
2023/07/08 00:24:57;;;;;;;5.60;3.70;;;;;;;;;;108037;273;42168;-41
2023/07/08 00:27:36;;;;;;;5.40;3.70;;;;;;;;;;108044;269;39802;-42
2023/07/08 00:30:26;;;;;;;6.10;3.90;;;;;;;;;;108042;276;39761;-43
2023/07/08 00:33:05;;;;;;;5.70;3.90;;;;;;;;;;108062;276;42563;-44
2023/07/08 00:35:44;;;;;;;5.90;3.80;;;;;;;;;;108005;276;42199;-40
2023/07/08 00:38:26;;;;;;;5.30;3.90;;;;;;;;;;108031;273;38857;-43
2023/07/08 00:41:17;;;;;;;5.70;3.80;;;;;;;;;;108014;273;39841;-42
2023/07/08 00:43:55;;;;;;;5.30;3.80;;;;;;;;;;108028;276;42729;-42
2023/07/08 00:46:52;;;;;;;5.80;3.90;;;;;;;;;;107992;276;42079;-43
2023/07/08 00:49:38;;;;;;;6.20;4.30;;;;;;;;;;108076;276;38820;-42
2023/07/08 00:52:27;;;;;;;6.30;4.00;;;;;;;;;;108019;269;39621;-41
2023/07/08 00:55:05;;;;;;;6.60;4.40;;;;;;;;;;107900;273;195653;-42
2023/07/08 00:57:47;;;;;;;5.50;4.00;;;;;;;;;;108036;269;41977;-40
2023/07/08 01:00:20;;;;;;;;;;;;;;;;;;108000;276;38665;-41
2023/07/08 01:03:01;;;;;;;6.80;4.40;;;;;;;;;;108036;269;39787;-42
2023/07/08 01:05:38;;;;;;;5.90;4.30;;;;;;;;;;107961;273;42957;-43
2023/07/08 01:08:17;;;;;;;6.10;4.20;;;;;;;;;;107994;276;42402;-41
2023/07/08 01:11:02;;;;;;;7.10;4.40;;;;;;;;;;108014;269;38771;-41
2023/07/08 01:13:45;;;;;;;6.10;4.30;;;;;;;;;;108008;272;40952;-42
2023/07/08 01:16:25;;;;;;;5.90;4.20;;;;;;;;;;108007;276;42736;-41
2023/07/08 01:19:00;;;;;;;6.90;4.20;;;;;;;;;;108039;276;42141;-43
2023/07/08 01:21:39;;;;;;;6.40;4.20;;;;;;;;;;108028;276;38767;-44
2023/07/08 01:24:14;;;;;;;6.80;4.50;;;;;;;;;;108059;269;39802;-44
2023/07/08 01:26:51;;;;;;;6.70;4.00;;;;;;;;;;107972;269;43190;-50
2023/07/08 01:29:25;;;;;;;6.10;4.00;;;;;;;;;;108093;269;42140;-44
2023/07/08 01:32:02;;;;;;;6.50;4.40;;;;;;;;;;108010;269;39880;-42
2023/07/08 01:34:38;;;;;;;6.30;4.30;;;;;;;;;;108020;276;39835;-41
2023/07/08 01:37:18;;;;;;;5.90;4.10;;;;;;;;;;108026;272;42751;-42
2023/07/08 01:39:54;;;;;;;6.80;4.30;;;;;;;;;;108000;276;42341;-44
2023/07/08 01:42:34;;;;;;;6.50;4.30;;;;;;;;;;108030;273;38751;-41
2023/07/08 01:45:16;;;;;;;5.90;4.30;;;;;;;;;;108005;276;39643;-44
2023/07/08 01:47:58;;;;;;;6.20;4.30;;;;;;;;;;108041;269;43928;-42
2023/07/08 01:50:38;;;;;;;6.50;4.50;;;;;;;;;;108023;277;42108;-41
2023/07/08 01:53:17;;;;;;;7.10;4.40;;;;;;;;;;108043;273;38967;-40
2023/07/08 01:55:52;;;;;;;6.10;4.30;;;;;;;;;;108009;276;39744;-43
2023/07/08 01:58:32;;;;;;;6.20;4.70;;;;;;;;;;107982;269;42960;-42
2023/07/08 02:01:11;;;;;;;6.70;4.50;;;;;;;;;;108013;269;42119;-44
2023/07/08 02:03:47;;;;;;;6.20;4.60;;;;;;;;;;108022;273;38612;-44
2023/07/08 02:06:24;;;;;;;6.40;4.50;;;;;;;;;;107995;269;40898;-41
2023/07/08 02:08:59;;;;;;;6.70;4.50;;;;;;;;;;108007;276;47996;-44
2023/07/08 02:11:36;;;;;;;7.00;4.30;;;;;;;;;;108025;276;43372;-44
2023/07/08 02:14:17;;;;;;;6.90;4.70;;;;;;;;;;108039;273;38774;-41
2023/07/08 02:16:53;;;;;;;6.10;4.60;;;;;;;;;;107976;269;39687;-41
2023/07/08 02:19:33;;;;;;;6.20;4.60;;;;;;;;;;108012;277;42718;-43
2023/07/08 02:22:10;;;;;;;6.50;4.60;;;;;;;;;;108021;269;42215;-40
2023/07/08 02:24:53;;;;;;;6.60;4.60;;;;;;;;;;108041;269;38741;-40
2023/07/08 02:27:35;;;;;;;6.50;4.50;;;;;;;;;;107965;269;39806;-42
2023/07/08 02:30:13;;;;;;;6.50;4.80;;;;;;;;;;108031;273;42760;-40
2023/07/08 02:32:56;;;;;;;6.20;4.60;;;;;;;;;;108015;269;44285;-42
2023/07/08 02:35:32;;;;;;;7.10;4.70;;;;;;;;;;108037;273;38730;-40
2023/07/08 02:38:12;;;;;;;6.60;4.90;;;;;;;;;;107976;274;39790;-42
2023/07/08 02:40:52;;;;;;;7.10;5.00;;;;;;;;;;108037;277;42788;-41
2023/07/08 02:43:29;;;;;;;6.60;4.90;;;;;;;;;;108005;273;42194;-42
2023/07/08 02:46:05;;;;;;;7.10;5.10;;;;;;;;;;108030;269;38775;-46
2023/07/08 02:48:45;;;;;;;7.80;5.10;;;;;;;;;;108039;269;39768;-41
2023/07/08 02:51:20;;;;;;;6.80;5.10;;;;;;;;;;108003;277;43030;-42
2023/07/08 02:53:56;;;;;;;7.10;4.80;;;;;;;;;;108053;277;42212;-42
2023/07/08 02:56:30;;;;;;;6.70;4.90;;;;;;;;;;108030;269;38764;-42
2023/07/08 02:59:06;;;;;;;6.60;4.70;;;;;;;;;;107995;276;39693;-41
2023/07/08 03:01:46;;;;;;;6.60;4.70;;;;;;;;;;107907;273;175432;-39
2023/07/08 03:04:25;;;;;;;6.10;4.80;;;;;;;;;;108018;276;42208;-43
2023/07/08 03:07:04;;;;;;;6.70;5.00;;;;;;;;;;108020;276;38811;-41
2023/07/08 03:09:39;;;;;;;7.40;5.20;;;;;;;;;;107998;276;39838;-42
2023/07/08 03:12:14;;;;;;;7.00;5.10;;;;;;;;;;108011;276;42881;-41
2023/07/08 03:14:49;;;;;;;8.00;5.40;;;;;;;;;;108048;269;42283;-42
2023/07/08 03:17:28;;;;;;;6.30;4.90;;;;;;;;;;108037;269;39229;-41
2023/07/08 03:20:07;;;;;;;6.90;5.20;;;;;;;;;;108006;269;41850;-43
2023/07/08 03:22:42;;;;;;;6.50;4.80;;;;;;;;;;108166;270;43086;-40
2023/07/08 03:25:19;;;;;;;6.40;5.00;;;;;;;;;;108230;273;42173;-43
2023/07/08 03:27:57;;;;;;;6.20;4.90;;;;;;;;;;108189;266;38879;-42
2023/07/08 03:30:31;;;;;;;7.00;5.10;;;;;;;;;;108147;266;47427;-42
2023/07/08 03:33:08;;;;;;;6.40;5.20;;;;;;;;;;108179;273;42804;-41
2023/07/08 03:35:48;;;;;;;7.20;5.40;;;;;;;;;;108166;273;42088;-42
2023/07/08 03:38:28;;;;;;;7.00;5.00;;;;;;;;;;108168;270;38714;-41
2023/07/08 03:41:05;;;;;;;6.80;5.20;;;;;;;;;;108201;273;46949;-42
2023/07/08 03:43:39;;;;;;;6.70;5.40;;;;;;;;;;108198;266;42860;-41
2023/07/08 03:46:16;;;;;;;7.40;5.10;;;;;;;;;;108210;266;42232;-41
2023/07/08 03:48:55;;;;;;;6.90;5.30;;;;;;;;;;108161;270;38838;-41
2023/07/08 03:51:34;;;;;;;7.80;5.30;;;;;;;;;;108203;273;39761;-41
2023/07/08 03:54:12;;;;;;;6.70;5.10;;;;;;;;;;108235;273;42674;-43
2023/07/08 03:56:46;;;;;;;8.10;5.60;;;;;;;;;;108234;266;44227;-42
2023/07/08 03:59:20;;;;;;;7.40;5.60;;;;;;;;;;108179;270;40082;-41
2023/07/08 04:01:55;;;;;;;6.70;5.40;;;;;;;;;;108271;273;39399;-40
2023/07/08 04:04:29;;;;;;;7.60;5.70;;;;;;;;;;108239;270;42717;-41
2023/07/08 04:07:05;;;;;;;7.00;5.60;;;;;;;;;;108229;273;42187;-42
2023/07/08 04:09:40;;;;;;;7.00;5.30;;;;;;;;;;108175;266;38765;-41
2023/07/08 04:12:14;;;;;;;7.60;6.10;;;;;;;;;;108227;266;39735;-42
2023/07/08 04:14:48;;;;;;;7.40;5.40;;;;;;;;;;108229;270;42750;-41
2023/07/08 04:17:23;;;;;;;7.50;5.40;;;;;;;;;;108134;273;175436;-43
2023/07/08 04:19:57;;;;;;;7.10;5.60;;;;;;;;;;108209;273;40061;-43
2023/07/08 04:22:31;;;;;;;7.10;5.80;;;;;;;;;;108223;273;39768;-41
2023/07/08 04:25:06;;;;;;;7.30;5.80;;;;;;;;;;108204;270;42540;-42
2023/07/08 04:27:42;;;;;;;7.80;6.10;;;;;;;;;;108227;273;42238;-43
2023/07/08 04:30:24;;;;;;;8.00;6.10;;;;;;;;;;108211;273;38827;-40
2023/07/08 04:32:57;;;;;;;7.80;5.80;;;;;;;;;;108126;274;39721;-42
2023/07/08 04:35:33;;;;;;;7.00;5.40;;;;;;;;;;108200;266;42894;-43
2023/07/08 04:38:09;;;;;;;7.50;5.80;;;;;;;;;;108179;266;43252;-41
2023/07/08 04:40:45;;;;;;;8.20;5.80;;;;;;;;;;108169;270;38784;-41
2023/07/08 04:43:19;;;;;;;7.10;5.70;;;;;;;;;;108208;266;39755;-41
2023/07/08 04:45:55;;;;;;;6.40;5.70;;;;;;;;;;108233;266;42963;-42
2023/07/08 04:48:29;;;;;;;7.30;6.00;;;;;;;;;;108200;273;43445;-42
2023/07/08 04:51:06;;;;;;;6.90;5.60;;;;;;;;;;108179;270;38699;-42
2023/07/08 04:53:40;;;;;;;7.90;6.00;;;;;;;;;;108235;273;39825;-41
2023/07/08 04:56:15;;;;;;;6.80;5.70;;;;;;;;;;108226;273;42772;-44
2023/07/08 04:58:52;;;;;;;7.60;6.10;;;;;;;;;;108213;273;42044;-41
2023/07/08 05:01:30;;;;;;;6.90;5.60;;;;;;;;;;108172;273;38737;-40
2023/07/08 05:04:07;;;;;;;7.10;5.80;;;;;;;;;;108218;270;39770;-42
2023/07/08 05:06:41;;;;;;;7.20;5.90;;;;;;;;;;108242;273;43891;-41
2023/07/08 05:09:15;;;;;;;8.00;6.00;;;;;;;;;;108197;271;42217;-47
2023/07/08 05:11:51;;;;;;;7.40;6.10;;;;;;;;;;108086;274;38821;-45
2023/07/08 05:14:25;;;;;;;7.50;6.20;;;;;;;;;;108230;273;40762;-46
2023/07/08 05:16:59;;;;;;;7.90;5.70;;;;;;;;;;108187;273;42559;-41
2023/07/08 05:19:34;;;;;;;8.20;6.20;;;;;;;;;;108094;273;175408;-41
2023/07/08 05:22:09;;;;;;;6.90;5.60;;;;;;;;;;108186;269;39906;-41
2023/07/08 05:24:43;;;;;;;7.90;6.20;;;;;;;;;;108225;266;41877;-41
2023/07/08 05:27:22;;;;;;;7.90;6.00;;;;;;;;;;108231;273;43177;-43
2023/07/08 05:29:56;;;;;;;7.80;5.70;;;;;;;;;;108209;266;42105;-41
2023/07/08 05:32:30;;;;;;;7.50;6.30;;;;;;;;;;108143;273;38786;-41
2023/07/08 05:35:05;;;;;;;6.90;5.60;;;;;;;;;;108205;266;40884;-41
2023/07/08 05:37:46;;;;;;;7.90;5.80;;;;;;;;;;108216;266;43819;-41
2023/07/08 05:40:22;;;;;;;7.20;5.50;;;;;;;;;;108233;273;42303;-45
2023/07/08 05:42:55;;;;;;;7.50;5.90;;;;;;;;;;108154;273;38877;-44
2023/07/08 05:45:35;;;;;;;7.10;5.60;;;;;;;;;;108217;270;40897;-41
2023/07/08 05:48:09;;;;;;;6.80;5.50;;;;;;;;;;108199;273;44060;-43
2023/07/08 05:50:47;;;;;;;6.80;5.60;;;;;;;;;;108216;270;43099;-42
2023/07/08 05:53:24;;;;;;;6.50;5.60;;;;;;;;;;108170;273;38499;-43
2023/07/08 05:55:58;;;;;;;7.70;5.50;;;;;;;;;;108191;273;40867;-41
2023/07/08 05:58:34;;;;;;;6.10;5.10;;;;;;;;;;108218;266;43844;-42
2023/07/08 06:01:07;;;;;;;7.00;5.30;;;;;;;;;;108247;273;41888;-41
2023/07/08 06:03:46;;;;;;;7.10;5.40;;;;;;;;;;108183;266;45778;-41
2023/07/08 06:06:22;;;;;;;8.00;5.30;;;;;;;;;;108204;273;40822;-42
2023/07/08 06:08:56;;;;;;;6.80;5.10;;;;;;;;;;108239;266;43791;-42
2023/07/08 06:11:29;;;;;;;6.50;5.30;;;;;;;;;;108189;273;42174;-40
2023/07/08 06:14:06;;;;;;;6.80;5.30;;;;;;;;;;108188;267;44450;-42
2023/07/08 06:16:40;;;;;;;6.90;5.30;;;;;;;;;;108229;266;39740;-42
2023/07/08 06:19:22;;;;;;;6.80;5.30;;;;;;;;;;108142;266;42762;-42
2023/07/08 06:21:59;;;;;;;;;;;;;;;;;;108165;274;43166;-42
2023/07/08 06:24:54;;;;;;;7.50;5.00;;;;;;;;;;108232;266;46157;-42
2023/07/08 06:27:28;;;;;;;7.10;5.50;;;;;;;;;;107898;274;41401;-43
2023/07/08 06:30:06;;;;;;;6.10;4.70;;;;;;;;;;108209;270;42782;-41
2023/07/08 06:32:40;;;;;;;6.90;5.00;;;;;;;;;;108183;266;42455;-41
2023/07/08 06:35:16;;;;;;;6.60;5.20;;;;;;;;;;108196;273;38761;-45
2023/07/08 06:37:50;;;;;;;6.30;5.00;;;;;;;;;;108184;273;39758;-44
2023/07/08 06:40:26;;;;;;;6.30;5.10;;;;;;;;;;108196;266;42794;-41
2023/07/08 06:43:06;;;;;;;7.30;4.90;;;;;;;;;;108203;273;43144;-42
2023/07/08 06:45:39;;;;;;;7.60;5.30;;;;;;;;;;108096;273;191793;-45
2023/07/08 06:48:13;;;;;;;6.10;5.20;;;;;;;;;;108212;273;39673;-42
2023/07/08 06:50:51;;;;;;;6.60;5.30;;;;;;;;;;108234;273;42907;-42
2023/07/08 06:53:24;;;;;;;6.60;4.70;;;;;;;;;;108150;273;42200;-42
2023/07/08 06:56:00;;;;;;;6.80;4.90;;;;;;;;;;108131;273;38583;-42
2023/07/08 06:58:34;;;;;;;6.60;4.60;;;;;;;;;;108282;273;39418;-38
2023/07/08 07:01:07;;;;;;;6.30;4.30;;;;;;;;;;108205;271;43942;-39
2023/07/08 07:03:41;;;;;;;7.30;4.60;;;;;;;;;;108150;266;44186;-40
2023/07/08 07:06:17;;;;;;;6.20;4.10;;;;;;;;;;108160;273;38788;-40
2023/07/08 07:08:50;;;;;;;5.30;4.10;;;;;;;;;;108164;275;39663;-40
2023/07/08 07:11:23;;;;;;;6.80;4.00;;;;;;;;;;108078;267;175402;-39
2023/07/08 07:13:56;;;;;;;6.20;3.70;;;;;;;;;;108109;273;41928;-40
2023/07/08 07:16:30;;;;;;;6.30;4.10;;;;;;;;;;108213;267;38916;-40
2023/07/08 07:19:04;;;;;;;6.20;3.90;;;;;;;;;;108194;275;39817;-44
2023/07/08 07:21:39;;;;;;;5.60;3.60;;;;;;;;;;108155;275;42886;-42
2023/07/08 07:24:13;;;;;;;5.70;3.70;;;;;;;;;;108059;275;41819;-41
2023/07/08 07:26:47;;;;;;;5.30;3.70;;;;;;;;;;108166;268;38755;-44
2023/07/08 07:29:24;;;;;;;5.20;3.50;;;;;;;;;;108123;273;39486;-41
2023/07/08 07:31:58;;;;;;;5.00;3.40;;;;;;;;;;108156;273;42593;-41
2023/07/08 07:34:34;;;;;;;5.90;3.70;;;;;;;;;;108161;266;43231;-38
2023/07/08 07:37:09;;;;;;;5.90;3.60;;;;;;;;;;108187;273;38896;-42
2023/07/08 07:39:43;;;;;;;5.40;3.20;;;;;;;;;;108163;267;39452;-44
2023/07/08 07:42:19;;;;;;;4.80;3.20;;;;;;;;;;108138;275;42795;-42
2023/07/08 07:44:53;;;;;;;4.50;3.00;;;;;;;;;;108152;267;42191;-44
2023/07/08 07:47:26;;;;;;;5.20;3.20;;;;;;;;;;108173;275;38695;-40
2023/07/08 07:50:07;;;;;;;4.70;3.00;;;;;;;;;;108084;275;175360;-40
2023/07/08 07:52:41;;;;;;;4.80;3.00;;;;;;;;;;108191;271;42774;-41
2023/07/08 07:55:14;;;;;;;5.30;3.20;;;;;;;;;;108147;271;42116;-44
2023/07/08 07:57:49;;;;;;;5.90;3.10;;;;;;;;;;108204;275;38790;-41
2023/07/08 08:00:22;;;;;;;4.50;3.00;;;;;;;;;;108175;275;39778;-40
2023/07/08 08:02:58;;;;;;;5.50;3.10;;;;;;;;;;108155;274;43871;-39
2023/07/08 08:05:32;;;;;;;5.40;2.80;;;;;;;;;;108142;269;42192;-40
2023/07/08 08:08:07;;;;;;;4.90;3.00;;;;;;;;;;108225;269;38716;-39
2023/07/08 08:10:41;;;;;;;5.80;3.00;;;;;;;;;;108218;273;40349;-42
2023/07/08 08:13:15;;;;;;;5.20;3.00;;;;;;;;;;108096;266;42828;-41
2023/07/08 08:15:48;;;;;;;4.20;2.60;;;;;;;;;;108195;273;42127;-40
2023/07/08 08:18:21;;;;;;;4.60;2.80;;;;;;;;;;108184;273;38732;-40
2023/07/08 08:20:56;;;;;;;4.40;2.70;;;;;;;;;;108230;269;39652;-44
2023/07/08 08:23:30;;;;;;;4.90;2.70;;;;;;;;;;108201;273;43962;-40
2023/07/08 08:26:06;;;;;;;4.50;2.60;;;;;;;;;;108172;271;42204;-40
2023/07/08 08:28:42;;;;;;;4.40;2.70;;;;;;;;;;108205;269;38813;-41
2023/07/08 08:31:17;;;;;;;4.20;2.60;;;;;;;;;;108271;265;40815;-44
2023/07/08 08:33:50;;;;;;;4.70;2.50;;;;;;;;;;108216;266;43928;-42
2023/07/08 08:36:28;;;;;;;3.90;2.60;;;;;;;;;;108117;269;42125;-44
2023/07/08 08:39:04;;;;;;;4.30;2.60;;;;;;;;;;108132;273;38612;-41
2023/07/08 08:41:41;;;;;;;4.00;2.60;;;;;;;;;;108211;273;39763;-42
2023/07/08 08:44:21;;;;;;;4.60;2.70;;;;;;;;;;108187;269;42713;-44
2023/07/08 08:47:05;;;;;;;4.20;2.60;;;;;;;;;;108127;265;41943;-40
2023/07/08 08:49:48;;;;;;;4.30;2.60;;;;;;;;;;108138;273;175391;-42
2023/07/08 08:52:24;;;;;;;4.40;2.50;;;;;;;;;;108190;265;39742;-42
2023/07/08 08:54:58;;;;;;;4.40;2.70;;;;;;;;;;108236;269;43121;-40
2023/07/08 08:57:44;;;;;;;4.20;2.50;;;;;;;;;;108157;273;43223;-41
2023/07/08 09:00:25;;;;;;;4.60;2.50;;;;;;;;;;108257;273;38835;-39
2023/07/08 09:03:09;;;;;;;4.40;2.60;;;;;;;;;;108211;269;39883;-41
2023/07/08 09:05:47;;;;;;;4.50;2.70;;;;;;;;;;108184;273;42784;-49
2023/07/08 09:08:32;;;;;;;4.20;2.50;;;;;;;;;;108179;273;42116;-41
2023/07/08 09:11:32;;;;;;;4.40;2.80;;;;;;;;;;108182;273;38892;-39
2023/07/08 09:14:16;;;;;;;4.20;2.60;;;;;;;;;;108244;265;39436;-40
2023/07/08 09:16:54;;;;;;;;;;;;;;;;;;108174;266;44087;-42
2023/07/08 09:19:32;;;;;;;4.80;2.70;;;;;;;;;;108253;265;42471;-41
2023/07/08 09:22:10;;;;;;;4.10;2.60;;;;;;;;;;108203;273;38773;-41
2023/07/08 09:24:52;;;;;;;4.60;2.90;;;;;;;;;;108216;273;40851;-42
2023/07/08 09:27:25;;;;;;;;;;;;;;;;;;108166;273;42890;-40
2023/07/08 09:30:03;;;;;;;4.50;2.50;;;;;;;;;;108197;273;41717;-42
2023/07/08 09:32:40;;;;;;;4.10;2.50;;;;;;;;;;108079;265;191785;-42
2023/07/08 09:35:22;;;;;;;4.10;2.40;;;;;;;;;;107519;273;893272;-46
2023/07/08 09:37:58;;;;;;;4.10;2.60;;;;;;;;;;108167;273;42795;-41
2023/07/08 09:40:38;;;;;;;4.20;2.50;;;;;;;;;;108170;273;42389;-41
2023/07/08 09:43:26;;;;;;;4.00;2.40;;;;;;;;;;108213;273;39886;-44
2023/07/08 09:46:01;;;;;;;4.20;2.40;;;;;;;;;;108111;273;176073;-41
2023/07/08 09:48:40;;;;;;;4.20;2.60;;;;;;;;;;108161;273;43036;-41
2023/07/08 09:51:14;;;;;;;3.80;2.50;;;;;;;;;;107545;269;892798;-40
2023/07/08 09:53:48;;;;;;;3.90;2.40;;;;;;;;;;108187;266;38886;-44
2023/07/08 09:56:26;;;;;;;4.20;2.50;;;;;;;;;;108196;266;39892;-46
2023/07/08 09:59:01;;;;;;;4.30;2.70;;;;;;;;;;108175;269;49889;-43
2023/07/08 10:01:35;;;;;;;4.30;2.30;;;;;;;;;;108213;269;41830;-42
2023/07/08 10:04:14;;;;;;;4.00;2.40;;;;;;;;;;108143;273;175430;-41
2023/07/08 10:06:48;;;;;;;4.20;2.40;;;;;;;;;;108173;269;40786;-41
2023/07/08 10:09:27;;;;;;;3.90;2.40;;;;;;;;;;108199;266;42808;-47
2023/07/08 10:12:08;;;;;;;4.30;2.60;;;;;;;;;;108246;269;42139;-43
2023/07/08 10:14:48;;;;;;;4.10;2.40;;;;;;;;;;108205;269;38789;-45
2023/07/08 10:17:23;;;;;;;4.30;2.60;;;;;;;;;;108047;269;175378;-45
2023/07/08 10:20:00;;;;;;;3.70;2.40;;;;;;;;;;108225;273;43955;-42
2023/07/08 10:22:47;;;;;;;4.80;2.60;;;;;;;;;;108168;269;44136;-44
2023/07/08 10:25:34;;;;;;;4.20;2.40;;;;;;;;;;108223;273;38760;-41
2023/07/08 10:28:28;;;;;;;4.70;2.70;;;;;;;;;;108149;273;39931;-40
2023/07/08 10:31:20;;;;;;;4.30;2.60;;;;;;;;;;108243;273;42918;-41
2023/07/08 10:34:13;;;;;;;4.10;2.40;;;;;;;;;;108213;266;43272;-41
2023/07/08 10:36:54;;;;;;;4.70;2.50;;;;;;;;;;108066;271;38989;-43
2023/07/08 10:39:48;;;;;;;4.60;2.60;;;;;;;;;;108179;273;39680;-41
2023/07/08 10:42:51;;;;;;;4.20;2.40;;;;;;;;;;108193;273;43064;-40
2023/07/08 10:45:34;;;;;;;4.10;2.40;;;;;;;;;;108219;266;42118;-41
2023/07/08 10:48:29;;;;;;;4.10;2.50;;;;;;;;;;108165;273;38544;-42
2023/07/08 10:51:20;;;;;;;4.40;2.40;;;;;;;;;;108195;273;39647;-40
2023/07/08 10:54:21;;;;;;;3.90;2.30;;;;;;;;;;108213;273;42790;-45
2023/07/08 10:57:12;;;;;;;4.50;2.50;;;;;;;;;;108241;266;42222;-46
2023/07/08 10:59:54;;;;;;;;;;;;;;;;;;108173;266;38798;-49
2023/07/08 11:05:43;;;;;;;4.00;2.40;;;;;;;;;;104847;311;560877;-49
2023/07/08 11:08:25;;;;;;;4.10;2.50;;;;;;;;;;107888;287;42833;-46
2023/07/08 11:11:04;;;;;;;4.30;2.80;;;;;;;;;;107881;282;43180;-52
2023/07/08 11:13:56;;;;;;;4.10;2.60;;;;;;;;;;107859;282;38745;-46
2023/07/08 11:16:35;;;;;;;4.20;2.60;;;;;;;;;;107848;282;39464;-46
2023/07/08 11:19:17;;;;;;;4.20;2.70;;;;;;;;;;107480;274;513569;-43
2023/07/08 11:21:53;;;;;;;4.40;3.00;;;;;;;;;;107921;280;42151;-43
2023/07/08 11:24:36;;;;;;;4.30;3.00;;;;;;;;;;108021;285;38855;-49
2023/07/08 11:27:19;;;;;;;4.40;2.90;;;;;;;;;;108068;273;44578;-47
2023/07/08 11:29:57;;;;;;;4.30;2.90;;;;;;;;;;107962;271;43910;-49
2023/07/08 11:32:34;;;;;;;4.80;2.70;;;;;;;;;;107938;276;42150;-46
2023/07/08 11:35:19;;;;;;;4.60;2.70;;;;;;;;;;107919;271;38545;-47
2023/07/08 11:37:53;;;;;;;4.70;2.90;;;;;;;;;;107982;280;44921;-47
2023/07/08 11:40:28;;;;;;;4.40;2.70;;;;;;;;;;107908;279;42762;-47
2023/07/08 11:43:08;;;;;;;4.60;2.70;;;;;;;;;;107934;280;42401;-46
2023/07/08 11:45:45;;;;;;;4.90;2.80;;;;;;;;;;107902;279;39816;-47
2023/07/08 11:48:23;;;;;;;4.20;2.90;;;;;;;;;;107953;279;39749;-48
2023/07/08 11:50:58;;;;;;;4.10;3.00;;;;;;;;;;107971;279;45159;-47
2023/07/08 11:53:52;;;;;;;4.10;2.70;;;;;;;;;;107950;271;42195;-48
2023/07/08 11:56:27;;;;;;;4.60;2.90;;;;;;;;;;107906;279;38860;-46
2023/07/08 11:59:19;;;;;;;4.50;2.80;;;;;;;;;;107939;271;39821;-47
2023/07/08 12:02:04;;;;;;;5.10;2.80;;;;;;;;;;107971;279;42751;-45
2023/07/08 12:04:59;;;;;;;4.30;2.90;;;;;;;;;;107920;279;42157;-52
2023/07/08 12:07:41;;;;;;;4.70;2.80;;;;;;;;;;107898;279;38730;-48
2023/07/08 12:10:17;;;;;;;;;;;;;;;;;;107937;271;39462;-47
2023/07/08 12:12:54;;;;;;;5.20;2.90;;;;;;;;;;107959;279;43046;-46
2023/07/08 12:15:30;;;;;;;4.80;3.10;;;;;;;;;;107966;279;43146;-47
2023/07/08 12:18:11;;;;;;;4.60;2.90;;;;;;;;;;107883;280;38777;-47
2023/07/08 12:20:50;;;;;;;4.80;2.90;;;;;;;;;;107817;280;174857;-49
2023/07/08 12:23:26;;;;;;;5.50;3.10;;;;;;;;;;107990;280;42744;-49
2023/07/08 12:26:00;;;;;;;4.90;3.20;;;;;;;;;;107950;280;42322;-50
2023/07/08 12:28:33;;;;;;;5.30;3.30;;;;;;;;;;107903;280;40031;-45
2023/07/08 12:31:13;;;;;;;5.70;3.40;;;;;;;;;;107905;280;39740;-49
2023/07/08 12:33:47;;;;;;;4.90;3.40;;;;;;;;;;107865;272;42840;-47
2023/07/08 12:36:24;;;;;;;5.40;3.30;;;;;;;;;;107927;272;43363;-47
2023/07/08 12:39:00;;;;;;;4.90;3.20;;;;;;;;;;108029;280;46670;-50
2023/07/08 12:41:36;;;;;;;4.50;2.80;;;;;;;;;;107962;284;39686;-51
2023/07/08 12:44:21;;;;;;;4.50;3.20;;;;;;;;;;107935;280;43963;-49
2023/07/08 12:47:02;;;;;;;4.70;3.20;;;;;;;;;;107916;272;42126;-48
2023/07/08 12:49:36;;;;;;;4.40;3.00;;;;;;;;;;107940;280;44982;-47
2023/07/08 12:52:22;;;;;;;5.00;3.10;;;;;;;;;;107942;280;40112;-47
2023/07/08 12:54:55;;;;;;;4.70;3.00;;;;;;;;;;107916;280;43052;-47
2023/07/08 12:57:28;;;;;;;4.40;3.30;;;;;;;;;;107935;280;43252;-50
2023/07/08 13:00:03;;;;;;;4.80;3.30;;;;;;;;;;107941;280;38755;-50
2023/07/08 13:02:37;;;;;;;4.80;3.60;;;;;;;;;;107958;280;39816;-51
2023/07/08 13:05:11;;;;;;;5.10;3.50;;;;;;;;;;107954;277;43787;-52
2023/07/08 13:07:46;;;;;;;4.70;3.40;;;;;;;;;;107946;280;43285;-47
2023/07/08 13:10:26;;;;;;;4.90;3.20;;;;;;;;;;107978;279;38737;-49
2023/07/08 13:13:05;;;;;;;4.70;3.20;;;;;;;;;;108008;279;39845;-50
2023/07/08 13:15:42;;;;;;;5.10;3.40;;;;;;;;;;107956;279;44230;-51
2023/07/08 13:18:20;;;;;;;4.50;3.20;;;;;;;;;;107932;279;42111;-48
2023/07/08 13:20:56;;;;;;;4.70;3.40;;;;;;;;;;107944;279;40026;-50
2023/07/08 13:23:31;;;;;;;5.30;3.50;;;;;;;;;;107982;271;39794;-53
2023/07/08 13:26:15;;;;;;;5.20;3.40;;;;;;;;;;107949;279;43936;-50
2023/07/08 13:28:49;;;;;;;4.90;3.30;;;;;;;;;;107951;279;43351;-47
2023/07/08 13:31:25;;;;;;;5.30;3.60;;;;;;;;;;107945;279;38618;-49
2023/07/08 13:34:04;;;;;;;5.30;3.70;;;;;;;;;;107980;279;39791;-49
2023/07/08 13:36:41;;;;;;;5.10;3.50;;;;;;;;;;107950;279;44127;-48
2023/07/08 13:39:23;;;;;;;4.20;3.20;;;;;;;;;;107243;280;911935;-52
2023/07/08 13:41:57;;;;;;;5.00;3.20;;;;;;;;;;107954;281;38821;-48
2023/07/08 13:44:31;;;;;;;4.70;3.10;;;;;;;;;;107960;280;39664;-47
2023/07/08 13:47:19;;;;;;;4.60;3.10;;;;;;;;;;107933;272;42561;-49
2023/07/08 13:49:59;;;;;;;4.60;3.30;;;;;;;;;;107863;281;42144;-48
2023/07/08 13:52:32;;;;;;;4.70;3.30;;;;;;;;;;107314;280;891530;-56
2023/07/08 13:55:19;;;;;;;4.60;3.20;;;;;;;;;;107930;280;39939;-52
2023/07/08 13:58:03;;;;;;;4.40;3.20;;;;;;;;;;107984;280;42779;-48
2023/07/08 14:00:36;;;;;;;4.70;3.00;;;;;;;;;;107906;284;42051;-48
2023/07/08 14:03:14;;;;;;;4.50;3.20;;;;;;;;;;107929;280;38676;-46
2023/07/08 14:05:49;;;;;;;4.80;3.10;;;;;;;;;;107943;280;40879;-46
2023/07/08 14:08:22;;;;;;;4.60;3.00;;;;;;;;;;107932;280;45007;-50
2023/07/08 14:10:55;;;;;;;4.70;2.90;;;;;;;;;;107977;270;42231;-45
2023/07/08 14:13:28;;;;;;;5.30;2.90;;;;;;;;;;108051;278;38861;-50
2023/07/08 14:16:03;;;;;;;4.70;3.00;;;;;;;;;;108047;278;39666;-52
2023/07/08 14:18:36;;;;;;;4.30;3.10;;;;;;;;;;108031;278;43073;-51
2023/07/08 14:21:10;;;;;;;4.40;3.00;;;;;;;;;;107969;278;43222;-49
2023/07/08 14:23:44;;;;;;;4.60;3.10;;;;;;;;;;108051;278;39900;-49
2023/07/08 14:26:17;;;;;;;4.60;3.20;;;;;;;;;;108030;278;39762;-50
2023/07/08 14:28:51;;;;;;;4.80;3.10;;;;;;;;;;108032;278;43830;-47
2023/07/08 14:31:27;;;;;;;4.90;3.10;;;;;;;;;;108011;270;43378;-49
2023/07/08 14:34:07;;;;;;;4.50;2.90;;;;;;;;;;108044;278;39851;-47
2023/07/08 14:36:41;;;;;;;4.50;2.80;;;;;;;;;;108027;278;40673;-45
2023/07/08 14:39:18;;;;;;;4.40;2.90;;;;;;;;;;108010;278;42551;-47
2023/07/08 14:41:52;;;;;;;4.70;2.90;;;;;;;;;;108044;270;49454;-47
2023/07/08 14:44:32;;;;;;;4.80;3.00;;;;;;;;;;108047;274;38684;-47
2023/07/08 14:47:10;;;;;;;4.70;2.90;;;;;;;;;;108005;278;39668;-46
2023/07/08 14:49:45;;;;;;;4.40;2.90;;;;;;;;;;107974;270;42787;-47
2023/07/08 14:52:19;;;;;;;4.60;2.70;;;;;;;;;;108057;278;42206;-48
2023/07/08 14:54:57;;;;;;;5.10;3.00;;;;;;;;;;108028;278;40003;-48
2023/07/08 14:57:43;;;;;;;4.80;2.90;;;;;;;;;;108024;278;39662;-48
2023/07/08 15:00:19;;;;;;;4.60;2.80;;;;;;;;;;107985;278;42756;-45
2023/07/08 15:02:55;;;;;;;4.60;2.80;;;;;;;;;;108048;278;43254;-48
2023/07/08 15:05:30;;;;;;;4.10;2.90;;;;;;;;;;108047;270;38735;-48
2023/07/08 15:08:05;;;;;;;4.20;2.60;;;;;;;;;;108061;278;39696;-46
2023/07/08 15:10:48;;;;;;;4.20;2.90;;;;;;;;;;107986;278;42892;-51
2023/07/08 15:13:26;;;;;;;4.10;2.70;;;;;;;;;;108027;278;42139;-45
2023/07/08 15:16:00;;;;;;;4.60;2.80;;;;;;;;;;108025;278;38732;-47
2023/07/08 15:18:34;;;;;;;4.10;2.80;;;;;;;;;;108038;270;38587;-47
2023/07/08 15:21:09;;;;;;;4.60;3.00;;;;;;;;;;107978;278;42698;-49
2023/07/08 15:23:44;;;;;;;4.60;2.90;;;;;;;;;;108067;278;42235;-47
2023/07/08 15:26:18;;;;;;;4.80;3.20;;;;;;;;;;108040;278;38876;-47
2023/07/08 15:28:54;;;;;;;4.80;3.00;;;;;;;;;;108055;278;39956;-47
2023/07/08 15:31:31;;;;;;;4.10;2.80;;;;;;;;;;108033;278;42928;-44
2023/07/08 15:34:08;;;;;;;4.50;3.10;;;;;;;;;;108023;270;42326;-46
2023/07/08 15:36:41;;;;;;;4.70;3.20;;;;;;;;;;108054;278;38749;-45
2023/07/08 15:39:15;;;;;;;5.00;3.40;;;;;;;;;;108035;278;39426;-46
2023/07/08 15:41:48;;;;;;;4.70;3.20;;;;;;;;;;108015;278;42751;-46
2023/07/08 15:44:22;;;;;;;4.30;2.90;;;;;;;;;;107910;278;175266;-45
2023/07/08 15:46:56;;;;;;;8.60;4.00;;;;;;;;;;108004;270;38774;-45
2023/07/08 15:49:30;;;;;;;6.70;3.80;;;;;;;;;;108020;278;39962;-48